createdAt,value
2023-04-27T00:01:26.056Z,88.67
2023-04-27T00:03:57.151Z,88.20
2023-04-27T00:06:27.502Z,88.22
2023-04-27T00:08:55.298Z,88.01
2023-04-27T00:11:23.046Z,87.55
2023-04-27T00:13:50.779Z,87.78
2023-04-27T00:16:18.751Z,87.78
2023-04-27T00:18:47.036Z,88.13
2023-04-27T00:21:14.780Z,88.60
2023-04-27T00:23:43.919Z,89.01
2023-04-27T00:26:11.687Z,89.40
2023-04-27T00:28:39.419Z,89.46
2023-04-27T00:31:07.242Z,89.45
2023-04-27T00:33:34.958Z,90.03
2023-04-27T00:36:03.432Z,91.50
2023-04-27T00:38:31.397Z,92.34
2023-04-27T00:41:04.258Z,92.91
2023-04-27T00:43:32.759Z,93.09
2023-04-27T00:46:01.256Z,93.30
2023-04-27T00:48:29.544Z,93.92
2023-04-27T00:50:57.373Z,94.50
2023-04-27T00:53:25.249Z,95.26
2023-04-27T00:55:53.004Z,95.92
2023-04-27T00:58:23.028Z,96.34
2023-04-27T01:00:51.106Z,97.24
2023-04-27T01:03:19.094Z,97.72
2023-04-27T01:05:47.008Z,98.01
2023-04-27T01:08:14.742Z,98.07
2023-04-27T01:10:42.842Z,98.03
2023-04-27T01:13:11.396Z,98.65
2023-04-27T01:15:40.497Z,99.28
2023-04-27T01:18:08.252Z,100.00
2023-04-27T01:20:36.330Z,100.00
2023-04-27T01:23:04.086Z,100.00
2023-04-27T01:25:33.214Z,100.00
2023-04-27T01:28:01.156Z,100.00
2023-04-27T01:30:30.136Z,100.00
2023-04-27T01:32:57.926Z,100.00
2023-04-27T01:35:28.133Z,100.00
2023-04-27T01:37:57.618Z,100.00
2023-04-27T01:40:25.502Z,100.00
2023-04-27T01:42:54.640Z,100.00
2023-04-27T01:45:22.456Z,100.00
2023-04-27T01:47:52.056Z,100.00
2023-04-27T01:50:20.179Z,100.00
2023-04-27T01:52:47.941Z,100.00
2023-04-27T01:55:15.921Z,100.00
2023-04-27T01:57:43.815Z,100.00
2023-04-27T02:00:14.395Z,100.00
2023-04-27T02:02:42.268Z,100.00
2023-04-27T02:05:10.558Z,100.00
2023-04-27T02:07:38.284Z,100.00
2023-04-27T02:10:07.198Z,100.00
2023-04-27T02:12:34.975Z,100.00
2023-04-27T02:15:03.576Z,100.00
2023-04-27T02:17:34.895Z,100.00
2023-04-27T02:20:02.913Z,100.00
2023-04-27T02:22:30.676Z,100.00
2023-04-27T02:24:58.394Z,100.00
2023-04-27T02:27:26.340Z,100.00
2023-04-27T02:29:57.482Z,100.00
2023-04-27T02:32:25.809Z,100.00
2023-04-27T02:34:56.707Z,100.00
2023-04-27T02:37:24.568Z,100.00
2023-04-27T02:39:52.395Z,100.00
2023-04-27T02:42:21.002Z,100.00
2023-04-27T02:44:48.802Z,100.00
2023-04-27T02:47:16.613Z,100.00
2023-04-27T02:49:44.462Z,100.00
2023-04-27T02:52:13.831Z,100.00
2023-04-27T02:54:41.572Z,100.00
2023-04-27T02:57:09.383Z,100.00
2023-04-27T02:59:37.175Z,100.00
2023-04-27T03:02:04.904Z,100.00
2023-04-27T03:04:33.082Z,100.00
2023-04-27T03:07:00.828Z,100.00
2023-04-27T03:09:29.966Z,100.00
2023-04-27T03:11:57.748Z,100.00
2023-04-27T03:14:25.485Z,100.00
2023-04-27T03:16:54.318Z,100.00
2023-04-27T03:19:22.113Z,100.00
2023-04-27T03:21:49.851Z,100.00
2023-04-27T03:24:17.594Z,100.00
2023-04-27T03:26:46.745Z,100.00
2023-04-27T03:29:14.890Z,100.00
2023-04-27T03:31:42.891Z,100.00
2023-04-27T03:34:10.751Z,100.00
2023-04-27T03:36:38.489Z,100.00
2023-04-27T03:39:06.267Z,100.00
2023-04-27T03:41:34.160Z,100.00
2023-04-27T03:44:03.393Z,100.00
2023-04-27T03:46:31.202Z,100.00
2023-04-27T03:48:59.059Z,100.00
2023-04-27T03:51:27.075Z,100.00
2023-04-27T03:53:54.805Z,100.00
2023-04-27T03:56:22.571Z,100.00
2023-04-27T03:58:50.380Z,100.00
2023-04-27T04:01:19.725Z,100.00
2023-04-27T04:03:48.228Z,100.00
2023-04-27T04:06:16.200Z,100.00
2023-04-27T04:08:43.946Z,100.00
2023-04-27T04:11:11.781Z,100.00
2023-04-27T04:13:39.516Z,100.00
2023-04-27T04:16:09.325Z,100.00
2023-04-27T04:18:38.569Z,100.00
2023-04-27T04:21:06.542Z,100.00
2023-04-27T04:23:34.285Z,100.00
2023-04-27T04:26:02.275Z,100.00
2023-04-27T04:28:30.719Z,100.00
2023-04-27T04:30:59.112Z,100.00
2023-04-27T04:33:27.270Z,100.00
2023-04-27T04:35:56.372Z,100.00
2023-04-27T04:38:24.505Z,100.00
2023-04-27T04:40:52.952Z,100.00
2023-04-27T04:43:21.553Z,100.00
2023-04-27T04:45:49.303Z,100.00
2023-04-27T04:48:17.612Z,100.00
2023-04-27T04:50:45.433Z,100.00
2023-04-27T04:53:14.558Z,100.00
2023-04-27T04:55:42.529Z,100.00
2023-04-27T04:58:10.295Z,100.00
2023-04-27T05:00:38.246Z,100.00
2023-04-27T05:03:07.685Z,100.00
2023-04-27T05:05:35.646Z,100.00
2023-04-27T05:08:03.545Z,100.00
2023-04-27T05:10:32.761Z,100.00
2023-04-27T05:13:00.558Z,99.35
2023-04-27T05:15:28.289Z,98.02
2023-04-27T05:17:56.075Z,97.79
2023-04-27T05:20:23.840Z,95.79
2023-04-27T05:22:51.580Z,94.39
2023-04-27T05:25:19.504Z,93.93
2023-04-27T05:27:48.583Z,93.17
2023-04-27T05:30:16.355Z,91.51
2023-04-27T05:32:44.198Z,89.57
2023-04-27T05:35:11.954Z,89.17
2023-04-27T05:37:39.716Z,90.26
2023-04-27T05:40:09.933Z,90.33
2023-04-27T05:42:37.892Z,88.40
2023-04-27T05:45:08.665Z,89.08
2023-04-27T05:47:36.671Z,88.67
2023-04-27T05:50:04.820Z,89.06
2023-04-27T05:52:32.663Z,88.00
2023-04-27T05:55:00.807Z,89.17
2023-04-27T05:57:28.875Z,87.77
2023-04-27T05:59:56.679Z,86.44
2023-04-27T06:02:26.024Z,86.73
2023-04-27T06:04:53.925Z,87.69
2023-04-27T06:07:21.700Z,87.75
2023-04-27T06:09:49.560Z,87.28
2023-04-27T06:12:17.292Z,87.08
2023-04-27T06:14:45.021Z,86.32
2023-04-27T06:17:12.799Z,85.60
2023-04-27T06:19:41.930Z,86.43
2023-04-27T06:22:11.286Z,85.08
2023-04-27T06:24:39.108Z,84.05
2023-04-27T06:27:07.192Z,84.42
2023-04-27T06:29:34.933Z,82.51
2023-04-27T06:32:06.447Z,83.45
2023-04-27T06:34:35.160Z,82.81
2023-04-27T06:37:04.333Z,81.03
2023-04-27T06:39:32.240Z,82.11
2023-04-27T06:42:00.165Z,82.96
2023-04-27T06:44:27.964Z,82.33
2023-04-27T06:46:55.775Z,82.89
2023-04-27T06:49:23.517Z,80.39
2023-04-27T06:51:52.098Z,78.52
2023-04-27T06:54:21.198Z,79.44
2023-04-27T06:56:48.937Z,77.53
2023-04-27T06:59:16.722Z,78.93
2023-04-27T07:01:44.539Z,79.14
2023-04-27T07:04:12.440Z,75.66
2023-04-27T07:06:40.404Z,73.99
2023-04-27T07:09:20.172Z,73.46
2023-04-27T07:11:57.374Z,71.91
2023-04-27T07:14:25.120Z,72.05
2023-04-27T07:16:52.833Z,72.50
2023-04-27T07:19:20.742Z,71.98
2023-04-27T07:21:48.464Z,70.95
2023-04-27T07:24:16.212Z,68.61
2023-04-27T07:26:44.596Z,70.59
2023-04-27T07:29:26.533Z,71.70
2023-04-27T07:31:55.682Z,68.51
2023-04-27T07:34:23.857Z,69.43
2023-04-27T07:36:54.088Z,69.10
2023-04-27T07:39:21.979Z,69.04
2023-04-27T07:41:50.182Z,68.36
2023-04-27T07:44:20.768Z,69.82
2023-04-27T07:46:49.494Z,70.12
2023-04-27T07:49:17.625Z,67.16
2023-04-27T07:51:45.500Z,66.58
2023-04-27T07:54:13.397Z,68.36
2023-04-27T07:56:42.861Z,64.59
2023-04-27T07:59:11.308Z,65.03
2023-04-27T08:01:40.700Z,66.12
2023-04-27T08:04:08.696Z,66.66
2023-04-27T08:06:37.077Z,66.55
2023-04-27T08:09:05.762Z,66.90
2023-04-27T08:11:33.709Z,62.48
2023-04-27T08:14:01.545Z,63.50
2023-04-27T08:16:29.316Z,63.21
2023-04-27T08:19:00.429Z,63.30
2023-04-27T08:21:29.721Z,63.47
2023-04-27T08:23:57.633Z,63.25
2023-04-27T08:26:26.380Z,62.95
2023-04-27T08:28:54.487Z,64.13
2023-04-27T08:31:23.016Z,63.48
2023-04-27T08:33:50.876Z,63.60
2023-04-27T08:36:20.153Z,60.62
2023-04-27T08:38:47.869Z,63.32
2023-04-27T08:41:21.749Z,62.62
2023-04-27T08:43:50.859Z,63.15
2023-04-27T08:46:22.179Z,60.71
2023-04-27T08:48:51.829Z,61.52
2023-04-27T08:51:22.223Z,62.09
2023-04-27T08:53:52.107Z,63.03
2023-04-27T08:56:23.446Z,60.24
2023-04-27T08:58:51.324Z,61.02
2023-04-27T09:01:19.553Z,60.00
2023-04-27T09:03:47.940Z,59.13
2023-04-27T09:06:16.913Z,59.16
2023-04-27T09:08:50.280Z,61.89
2023-04-27T09:11:30.161Z,60.12
2023-04-27T09:13:59.494Z,60.63
2023-04-27T09:16:29.202Z,58.57
2023-04-27T09:18:58.190Z,59.66
2023-04-27T09:21:27.751Z,58.26
2023-04-27T09:23:57.966Z,56.70
2023-04-27T09:26:28.075Z,59.12
2023-04-27T09:28:57.831Z,57.67
2023-04-27T09:31:32.652Z,58.81
2023-04-27T09:34:00.532Z,58.35
2023-04-27T09:36:28.529Z,56.65
2023-04-27T09:38:58.853Z,56.35
2023-04-27T09:41:28.264Z,56.68
2023-04-27T09:43:57.984Z,56.61
2023-04-27T09:46:27.415Z,56.16
2023-04-27T09:48:57.275Z,55.55
2023-04-27T09:51:26.249Z,53.44
2023-04-27T09:53:57.531Z,56.36
2023-04-27T09:56:43.402Z,51.77
2023-04-27T09:59:21.598Z,56.43
2023-04-27T10:01:52.352Z,53.33
2023-04-27T10:04:39.372Z,53.40
2023-04-27T10:07:09.855Z,53.84
2023-04-27T10:09:38.606Z,53.31
2023-04-27T10:12:18.687Z,49.75
2023-04-27T10:14:54.121Z,50.45
2023-04-27T10:17:27.536Z,52.30
2023-04-27T10:19:59.736Z,50.74
2023-04-27T10:22:39.560Z,53.37
2023-04-27T10:25:17.337Z,49.22
2023-04-27T10:27:50.852Z,51.07
2023-04-27T10:30:20.458Z,46.47
2023-04-27T10:32:52.916Z,45.16
2023-04-27T10:35:22.194Z,48.01
2023-04-27T10:37:52.062Z,48.58
2023-04-27T10:40:19.889Z,46.31
2023-04-27T10:42:49.633Z,46.55
2023-04-27T10:45:30.850Z,44.91
2023-04-27T10:48:01.968Z,42.95
2023-04-27T10:50:30.066Z,41.98
2023-04-27T10:53:02.521Z,44.23
2023-04-27T10:55:30.911Z,42.82
2023-04-27T10:58:01.504Z,43.69
2023-04-27T11:00:33.061Z,42.11
2023-04-27T11:03:12.678Z,40.58
2023-04-27T11:05:40.576Z,42.76
2023-04-27T11:08:09.904Z,43.47
2023-04-27T11:10:40.268Z,44.75
2023-04-27T11:13:13.900Z,42.07
2023-04-27T11:15:49.520Z,42.31
2023-04-27T11:18:18.882Z,40.86
2023-04-27T11:20:50.503Z,42.94
2023-04-27T11:23:26.259Z,42.30
2023-04-27T11:25:54.450Z,43.35
2023-04-27T11:28:24.303Z,43.20
2023-04-27T11:30:58.800Z,43.48
2023-04-27T11:33:27.975Z,44.25
2023-04-27T11:35:56.475Z,45.44
2023-04-27T11:38:24.566Z,44.25
2023-04-27T11:41:01.759Z,42.14
2023-04-27T11:43:31.757Z,43.09
2023-04-27T11:45:59.986Z,41.50
2023-04-27T11:48:28.723Z,38.98
2023-04-27T11:50:59.170Z,40.86
2023-04-27T11:53:31.397Z,40.86
2023-04-27T11:56:01.077Z,37.78
2023-04-27T11:58:30.759Z,39.86
2023-04-27T12:00:59.042Z,40.46
2023-04-27T12:03:27.153Z,40.19
2023-04-27T12:05:55.492Z,39.59
2023-04-27T12:08:24.305Z,40.09
2023-04-27T12:10:52.629Z,40.22
2023-04-27T12:13:20.495Z,41.04
2023-04-27T12:15:49.580Z,41.32
2023-04-27T12:18:17.341Z,41.14
2023-04-27T12:20:45.166Z,40.43
2023-04-27T12:23:12.905Z,40.66
2023-04-27T12:25:41.185Z,39.49
2023-04-27T12:28:09.003Z,38.90
2023-04-27T12:30:36.833Z,39.24
2023-04-27T12:33:11.006Z,38.72
2023-04-27T12:35:39.051Z,38.77
2023-04-27T12:38:07.104Z,41.41
2023-04-27T12:40:34.910Z,38.07
2023-04-27T12:43:02.764Z,37.58
2023-04-27T12:45:30.530Z,37.82
2023-04-27T12:48:03.781Z,39.93
2023-04-27T12:50:33.584Z,37.79
2023-04-27T12:53:01.349Z,38.97
2023-04-27T12:55:33.708Z,37.71
2023-04-27T12:58:02.414Z,38.63
2023-04-27T13:00:30.511Z,38.81
2023-04-27T13:02:59.034Z,36.58
2023-04-27T13:05:27.572Z,36.58
2023-04-27T13:07:57.959Z,37.90
2023-04-27T13:10:25.796Z,37.45
2023-04-27T13:12:53.614Z,37.71
2023-04-27T13:15:21.457Z,39.64
2023-04-27T13:17:49.270Z,36.86
2023-04-27T13:20:17.303Z,38.19
2023-04-27T13:22:45.050Z,39.79
2023-04-27T13:25:14.128Z,37.78
2023-04-27T13:27:41.894Z,39.11
2023-04-27T13:30:10.779Z,38.88
2023-04-27T13:32:38.600Z,37.42
2023-04-27T13:35:07.820Z,36.50
2023-04-27T13:37:35.668Z,38.48
2023-04-27T13:40:05.311Z,38.93
2023-04-27T13:42:34.965Z,39.26
2023-04-27T13:45:04.206Z,38.83
2023-04-27T13:47:36.843Z,40.40
2023-04-27T13:50:06.734Z,42.28
2023-04-27T13:52:35.956Z,38.56
2023-04-27T13:55:04.299Z,39.75
2023-04-27T13:57:32.229Z,38.62
2023-04-27T14:00:01.755Z,40.02
2023-04-27T14:02:30.969Z,38.79
2023-04-27T14:04:59.022Z,39.48
2023-04-27T14:07:27.430Z,39.61
2023-04-27T14:09:55.209Z,39.62
2023-04-27T14:12:23.074Z,38.46
2023-04-27T14:14:50.851Z,38.48
2023-04-27T14:17:19.965Z,37.60
2023-04-27T14:19:47.782Z,37.79
2023-04-27T14:22:15.825Z,38.80
2023-04-27T14:24:43.592Z,39.45
2023-04-27T14:27:11.382Z,39.38
2023-04-27T14:29:39.129Z,38.80
2023-04-27T14:32:07.109Z,40.15
2023-04-27T14:34:36.513Z,39.56
2023-04-27T14:37:04.247Z,37.95
2023-04-27T14:39:32.008Z,38.26
2023-04-27T14:41:59.836Z,39.28
2023-04-27T14:44:27.621Z,39.74
2023-04-27T14:46:55.481Z,37.98
2023-04-27T14:49:23.280Z,39.54
2023-04-27T14:51:52.397Z,37.78
2023-04-27T14:54:20.142Z,39.90
2023-04-27T14:56:47.924Z,38.65
2023-04-27T14:59:15.928Z,39.08
2023-04-27T15:01:43.910Z,38.71
2023-04-27T15:04:12.047Z,40.44
2023-04-27T15:06:40.097Z,39.69
2023-04-27T15:09:09.379Z,38.89
2023-04-27T15:11:37.160Z,37.65
2023-04-27T15:14:04.882Z,37.93
2023-04-27T15:16:32.675Z,37.92
2023-04-27T15:19:00.504Z,38.89
2023-04-27T15:21:28.260Z,39.67
2023-04-27T15:23:56.001Z,37.66
2023-04-27T15:26:27.352Z,38.19
2023-04-27T15:28:55.135Z,37.93
2023-04-27T15:31:22.969Z,37.91
2023-04-27T15:33:50.855Z,38.07
2023-04-27T15:36:18.772Z,38.90
2023-04-27T15:38:46.489Z,39.05
2023-04-27T15:41:14.258Z,38.73
2023-04-27T15:43:43.372Z,38.26
2023-04-27T15:46:11.436Z,39.27
2023-04-27T15:48:39.276Z,38.68
2023-04-27T15:51:10.092Z,39.00
2023-04-27T15:53:38.300Z,39.38
2023-04-27T15:56:06.768Z,38.01
2023-04-27T15:58:34.525Z,38.35
2023-04-27T16:01:03.635Z,39.35
2023-04-27T16:03:31.705Z,37.79
2023-04-27T16:05:59.519Z,38.29
2023-04-27T16:08:27.883Z,39.43
2023-04-27T16:10:55.802Z,38.33
2023-04-27T16:13:24.790Z,38.64
2023-04-27T16:15:52.533Z,39.44
2023-04-27T16:18:21.688Z,39.43
2023-04-27T16:20:49.419Z,39.10
2023-04-27T16:23:17.412Z,39.93
2023-04-27T16:25:45.223Z,39.83
2023-04-27T16:28:12.960Z,39.37
2023-04-27T16:30:40.719Z,39.87
2023-04-27T16:33:08.560Z,40.90
2023-04-27T16:35:37.738Z,40.21
2023-04-27T16:38:06.009Z,40.40
2023-04-27T16:40:33.935Z,40.92
2023-04-27T16:43:01.715Z,41.92
2023-04-27T16:45:29.554Z,41.28
2023-04-27T16:47:59.602Z,40.70
2023-04-27T16:50:27.618Z,40.81
2023-04-27T16:53:04.356Z,42.42
2023-04-27T16:55:32.519Z,43.16
2023-04-27T16:58:00.307Z,43.53
2023-04-27T17:00:29.005Z,42.92
2023-04-27T17:02:57.062Z,42.81
2023-04-27T17:05:24.843Z,42.52
2023-04-27T17:07:53.228Z,43.03
2023-04-27T17:10:22.728Z,43.86
2023-04-27T17:12:51.179Z,44.19
2023-04-27T17:15:19.366Z,44.52
2023-04-27T17:17:47.160Z,45.06
2023-04-27T17:20:15.222Z,44.37
2023-04-27T17:22:42.961Z,43.81
2023-04-27T17:25:11.301Z,43.32
2023-04-27T17:27:40.909Z,44.13
2023-04-27T17:30:10.404Z,44.84
2023-04-27T17:32:38.258Z,45.31
2023-04-27T17:35:06.812Z,46.02
2023-04-27T17:37:34.563Z,46.36
2023-04-27T17:40:02.344Z,46.78
2023-04-27T17:42:30.083Z,47.44
2023-04-27T17:44:59.143Z,47.52
2023-04-27T17:47:26.939Z,47.72
2023-04-27T17:49:54.731Z,48.13
2023-04-27T17:52:22.503Z,48.58
2023-04-27T17:54:50.836Z,49.87
2023-04-27T17:57:18.770Z,51.12
2023-04-27T17:59:46.528Z,52.65
2023-04-27T18:02:15.780Z,53.12
2023-04-27T18:04:43.858Z,53.77
2023-04-27T18:07:11.853Z,55.27
2023-04-27T18:09:39.714Z,55.18
2023-04-27T18:12:10.992Z,56.30
2023-04-27T18:14:39.752Z,57.46
2023-04-27T18:17:07.530Z,59.88
2023-04-27T18:19:36.646Z,58.18
2023-04-27T18:22:04.408Z,57.75
2023-04-27T18:24:32.196Z,58.06
2023-04-27T18:27:00.011Z,58.87
2023-04-27T18:29:27.850Z,59.12
2023-04-27T18:31:56.930Z,59.69
2023-04-27T18:34:24.718Z,61.12
2023-04-27T18:36:53.797Z,62.66
2023-04-27T18:39:22.094Z,64.99
2023-04-27T18:41:49.892Z,64.86
2023-04-27T18:44:17.825Z,65.03
2023-04-27T18:46:46.208Z,65.42
2023-04-27T18:49:14.141Z,66.64
2023-04-27T18:51:42.028Z,66.88
2023-04-27T18:54:11.189Z,68.57
2023-04-27T18:56:38.939Z,70.25
2023-04-27T18:59:06.758Z,70.88
2023-04-27T19:01:36.244Z,71.83
2023-04-27T19:04:04.252Z,71.68
2023-04-27T19:06:32.132Z,72.67
2023-04-27T19:09:00.139Z,73.46
2023-04-27T19:11:30.265Z,74.36
2023-04-27T19:13:58.028Z,75.45
2023-04-27T19:16:25.897Z,76.77
2023-04-27T19:18:53.658Z,75.84
2023-04-27T19:21:21.435Z,76.82
2023-04-27T19:23:49.294Z,78.46
2023-04-27T19:26:17.122Z,79.41
2023-04-27T19:28:46.336Z,80.07
2023-04-27T19:31:14.248Z,79.99
2023-04-27T19:36:12.690Z,81.35
2023-04-27T19:38:40.630Z,82.13
2023-04-27T19:41:08.398Z,82.06
2023-04-27T19:43:36.372Z,81.93
2023-04-27T19:46:05.609Z,82.59
2023-04-27T19:48:33.640Z,82.69
2023-04-27T19:51:01.710Z,84.11
2023-04-27T19:53:29.459Z,85.87
2023-04-27T19:55:58.356Z,86.38
2023-04-27T19:58:27.327Z,86.81
2023-04-27T20:00:55.173Z,87.41
2023-04-27T20:03:24.522Z,87.34
2023-04-27T20:05:53.015Z,88.70
2023-04-27T20:08:20.965Z,89.01
2023-04-27T20:10:48.704Z,89.80
2023-04-27T20:13:16.510Z,89.83
2023-04-27T20:15:44.414Z,90.42
2023-04-27T20:18:12.342Z,90.42
2023-04-27T20:20:42.635Z,91.26
2023-04-27T20:23:10.369Z,91.72
2023-04-27T20:25:38.280Z,92.22
2023-04-27T20:28:06.248Z,93.52
2023-04-27T20:30:34.004Z,94.42
2023-04-27T20:33:03.911Z,94.93
2023-04-27T20:35:32.232Z,93.32
2023-04-27T20:38:01.927Z,92.15
2023-04-27T20:40:29.721Z,91.62
2023-04-27T20:42:57.562Z,91.89
2023-04-27T20:45:25.437Z,92.71
2023-04-27T20:47:54.446Z,93.26
2023-04-27T20:50:22.232Z,94.49
2023-04-27T20:52:50.098Z,95.37
2023-04-27T20:55:19.248Z,96.18
2023-04-27T20:57:47.028Z,96.98
2023-04-27T21:00:15.680Z,97.48
2023-04-27T21:02:43.538Z,98.91
2023-04-27T21:05:11.567Z,99.12
2023-04-27T21:07:39.393Z,99.46
2023-04-27T21:10:08.216Z,99.94
2023-04-27T21:12:37.424Z,100.00
2023-04-27T21:15:09.019Z,100.00
2023-04-27T21:17:36.880Z,100.00
2023-04-27T21:20:05.037Z,100.00
2023-04-27T21:22:32.765Z,100.00
2023-04-27T21:25:00.782Z,100.00
2023-04-27T21:27:29.027Z,100.00
2023-04-27T21:29:59.192Z,100.00
2023-04-27T21:32:27.041Z,100.00
2023-04-27T21:34:54.976Z,100.00
2023-04-27T21:37:22.719Z,100.00
2023-04-27T21:39:50.526Z,100.00
2023-04-27T21:42:18.254Z,100.00
2023-04-27T21:44:46.904Z,100.00
2023-04-27T21:47:16.061Z,100.00
2023-04-27T21:49:43.828Z,100.00
2023-04-27T21:52:11.583Z,100.00
2023-04-27T21:54:39.372Z,100.00
2023-04-27T21:57:07.098Z,100.00
2023-04-27T21:59:34.837Z,100.00
2023-04-27T22:02:06.554Z,100.00
2023-04-27T22:04:38.301Z,100.00
2023-04-27T22:07:06.693Z,100.00
2023-04-27T22:09:34.692Z,100.00
2023-04-27T22:12:02.962Z,100.00
2023-04-27T22:14:31.329Z,100.00
2023-04-27T22:17:00.757Z,100.00
2023-04-27T22:19:28.881Z,100.00
2023-04-27T22:21:58.355Z,100.00
2023-04-27T22:24:26.143Z,100.00
2023-04-27T22:26:53.880Z,100.00
2023-04-27T22:29:21.644Z,100.00
2023-04-27T22:31:49.544Z,100.00
2023-04-27T22:34:20.422Z,100.00
2023-04-27T22:36:48.410Z,100.00
2023-04-27T22:39:17.578Z,100.00
2023-04-27T22:41:46.222Z,100.00
2023-04-27T22:44:14.202Z,100.00
2023-04-27T22:46:43.837Z,100.00
2023-04-27T22:49:11.735Z,100.00
2023-04-27T22:51:39.513Z,100.00
2023-04-27T22:54:07.499Z,100.00
2023-04-27T22:56:36.618Z,100.00
2023-04-27T22:59:04.476Z,100.00
2023-04-27T23:01:32.407Z,100.00
2023-04-27T23:04:00.373Z,100.00
2023-04-27T23:06:30.381Z,100.00
2023-04-27T23:08:58.298Z,100.00
2023-04-27T23:11:26.952Z,100.00
2023-04-27T23:13:57.408Z,100.00
2023-04-27T23:16:25.699Z,100.00
2023-04-27T23:18:53.775Z,100.00
2023-04-27T23:21:21.583Z,100.00
2023-04-27T23:23:49.389Z,100.00
2023-04-27T23:26:17.921Z,100.00
2023-04-27T23:28:45.770Z,100.00
2023-04-27T23:31:14.913Z,100.00
2023-04-27T23:33:42.696Z,100.00
2023-04-27T23:36:10.474Z,100.00
2023-04-27T23:38:38.241Z,100.00
2023-04-27T23:41:06.055Z,100.00
2023-04-27T23:43:34.764Z,100.00
2023-04-27T23:46:02.530Z,100.00
2023-04-27T23:48:31.692Z,100.00
2023-04-27T23:51:00.827Z,100.00
2023-04-27T23:53:28.598Z,100.00
2023-04-27T23:55:56.766Z,100.00
2023-04-27T23:58:26.101Z,100.00
